TimeEST,TemperatureF,Dew PointF,Humidity,Sea Level PressureIn,VisibilityMPH,Wind Direction,Wind SpeedMPH,Gust SpeedMPH,PrecipitationIn,Events,Conditions,WindDirDegrees,DateUTC
12:14 AM,8.1,-4.0,58,30.10,10.0,West,11.5,-,N/A,,Clear,270,2013-01-22 05:14:00
12:35 AM,7.7,-4.0,59,30.10,10.0,West,11.5,-,N/A,,Clear,260,2013-01-22 05:35:00
12:54 AM,7.5,-4.5,58,30.10,10.0,West,9.2,17.3,N/A,,Clear,280,2013-01-22 05:54:00
1:14 AM,7.3,-3.5,61,30.11,10.0,West,9.2,-,N/A,,Scattered Clouds,270,2013-01-22 06:14:00
1:35 AM,7.2,-4.0,60,30.11,10.0,West,10.4,16.1,N/A,,Scattered Clouds,280,2013-01-22 06:35:00
1:54 AM,7.2,-5.8,55,30.11,10.0,West,9.2,16.1,N/A,,Scattered Clouds,280,2013-01-22 06:54:00
2:15 AM,6.8,-5.3,58,30.12,10.0,West,11.5,18.4,N/A,,Mostly Cloudy,280,2013-01-22 07:15:00
2:35 AM,6.4,-4.5,61,30.13,10.0,West,9.2,-,N/A,,Mostly Cloudy,280,2013-01-22 07:35:00
2:54 AM,6.4,-4.7,60,30.13,10.0,West,12.7,17.3,N/A,,Mostly Cloudy,280,2013-01-22 07:54:00
3:15 AM,6.3,-6.0,57,30.14,10.0,WNW,10.4,20.7,N/A,,Overcast,290,2013-01-22 08:15:00
3:35 AM,6.1,-8.0,53,30.14,10.0,WNW,11.5,19.6,N/A,,Overcast,290,2013-01-22 08:35:00
3:54 AM,6.3,-7.6,53,30.15,10.0,WNW,11.5,16.1,N/A,,Overcast,300,2013-01-22 08:54:00
4:15 AM,5.0,-12.1,45,30.15,10.0,WNW,16.1,19.6,N/A,,Scattered Clouds,290,2013-01-22 09:15:00
4:34 AM,4.8,-11.7,46,30.16,10.0,West,15.0,21.9,N/A,,Clear,280,2013-01-22 09:34:00
4:54 AM,4.6,-12.3,46,30.17,10.0,West,16.1,21.9,N/A,,Clear,280,2013-01-22 09:54:00
5:15 AM,4.3,-12.8,45,30.17,10.0,West,9.2,16.1,N/A,,Clear,280,2013-01-22 10:15:00
5:34 AM,4.1,-13.0,45,30.17,10.0,West,13.8,17.3,N/A,,Clear,270,2013-01-22 10:34:00
5:55 AM,3.9,-13.2,45,30.18,10.0,West,10.4,17.3,N/A,,Clear,280,2013-01-22 10:55:00
6:14 AM,3.7,-12.8,46,30.19,10.0,West,9.2,16.1,N/A,,Clear,280,2013-01-22 11:14:00
6:34 AM,3.7,-12.5,47,30.20,10.0,West,8.1,-,N/A,,Clear,270,2013-01-22 11:34:00
6:55 AM,3.6,-12.1,48,30.20,10.0,West,8.1,16.1,N/A,,Clear,270,2013-01-22 11:55:00
7:14 AM,3.2,-11.4,51,30.21,10.0,West,6.9,-,N/A,,Clear,260,2013-01-22 12:14:00
7:34 AM,3.0,-10.8,53,30.22,10.0,West,6.9,-,N/A,,Clear,260,2013-01-22 12:34:00
7:55 AM,3.0,-10.5,53,30.22,10.0,West,9.2,-,N/A,,Clear,260,2013-01-22 12:55:00
8:14 AM,3.0,-10.1,54,30.23,10.0,West,10.4,-,N/A,,Clear,260,2013-01-22 13:14:00
8:35 AM,3.2,-9.4,56,30.24,10.0,West,10.4,-,N/A,,Clear,270,2013-01-22 13:35:00
8:54 AM,3.9,-9.4,54,30.24,10.0,West,11.5,-,N/A,,Clear,260,2013-01-22 13:54:00
9:14 AM,4.5,-9.2,53,30.25,10.0,West,9.2,-,N/A,,Clear,270,2013-01-22 14:14:00
9:35 AM,5.4,-9.0,52,30.25,10.0,West,11.5,-,N/A,,Clear,270,2013-01-22 14:35:00
9:54 AM,6.1,-8.5,51,30.26,10.0,WNW,9.2,20.7,N/A,,Clear,300,2013-01-22 14:54:00
10:15 AM,6.6,-8.9,49,30.27,10.0,WNW,12.7,17.3,N/A,,Clear,290,2013-01-22 15:15:00
10:35 AM,7.7,-9.2,46,30.27,10.0,West,13.8,19.6,N/A,,Clear,280,2013-01-22 15:35:00
10:54 AM,9.0,-9.2,44,30.27,10.0,West,12.7,24.2,N/A,,Clear,280,2013-01-22 15:54:00
11:15 AM,10.0,-8.5,43,30.27,10.0,West,15.0,21.9,N/A,,Scattered Clouds,270,2013-01-22 16:15:00
11:35 AM,10.6,-8.3,42,30.27,10.0,WNW,13.8,18.4,N/A,,Mostly Cloudy,290,2013-01-22 16:35:00
11:54 AM,10.8,-8.7,41,30.26,10.0,WNW,19.6,24.2,N/A,,Overcast,290,2013-01-22 16:54:00
12:15 PM,11.1,-7.8,43,30.25,10.0,WNW,13.8,21.9,N/A,,Overcast,300,2013-01-22 17:15:00
12:34 PM,12.0,-7.6,41,30.25,10.0,West,13.8,17.3,N/A,,Overcast,280,2013-01-22 17:34:00
12:55 PM,12.6,-7.2,41,30.24,10.0,West,18.4,26.5,N/A,,Overcast,260,2013-01-22 17:55:00
1:15 PM,11.3,-6.7,44,30.23,10.0,West,11.5,18.4,N/A,,Mostly Cloudy,280,2013-01-22 18:15:00
1:34 PM,11.3,-5.3,47,30.23,10.0,West,9.2,16.1,N/A,,Overcast,280,2013-01-22 18:34:00
1:55 PM,12.9,-6.2,42,30.22,10.0,West,11.5,19.6,N/A,,Scattered Clouds,270,2013-01-22 18:55:00
2:14 PM,12.9,-6.0,43,30.23,10.0,West,11.5,20.7,N/A,,Scattered Clouds,280,2013-01-22 19:14:00
2:34 PM,11.5,-4.7,48,30.23,10.0,WNW,12.7,18.4,N/A,,Mostly Cloudy,290,2013-01-22 19:34:00
2:55 PM,13.6,-6.0,41,30.24,10.0,West,16.1,26.5,N/A,,Overcast,260,2013-01-22 19:55:00
3:14 PM,12.4,-5.4,45,30.24,10.0,West,13.8,23.0,N/A,,Mostly Cloudy,280,2013-01-22 20:14:00
3:34 PM,12.2,-2.6,52,30.24,7.0,West,11.5,18.4,N/A,,Overcast,280,2013-01-22 20:34:00
3:55 PM,11.8,-2.2,53,30.24,7.0,West,10.4,-,N/A,,Overcast,270,2013-01-22 20:55:00
4:14 PM,13.1,-2.2,51,30.23,10.0,WNW,9.2,-,N/A,,Overcast,290,2013-01-22 21:14:00
4:35 PM,12.7,-4.4,47,30.23,10.0,West,11.5,19.6,N/A,,Overcast,260,2013-01-22 21:35:00
4:54 PM,13.1,-3.5,48,30.24,10.0,West,9.2,-,N/A,,Overcast,270,2013-01-22 21:54:00
5:15 PM,12.7,-4.5,46,30.24,10.0,West,9.2,17.3,N/A,,Mostly Cloudy,260,2013-01-22 22:15:00
5:34 PM,12.4,-4.2,48,30.24,10.0,West,9.2,-,N/A,,Mostly Cloudy,280,2013-01-22 22:34:00
5:54 PM,12.2,-3.5,50,30.25,10.0,West,4.6,-,N/A,,Mostly Cloudy,260,2013-01-22 22:54:00
6:14 PM,12.7,-2.9,50,30.25,10.0,West,6.9,-,N/A,,Overcast,270,2013-01-22 23:14:00
6:34 PM,12.7,-2.4,51,30.25,10.0,WNW,8.1,-,N/A,,Overcast,300,2013-01-22 23:34:00
6:55 PM,12.2,-2.0,53,30.26,10.0,WNW,6.9,-,N/A,,Overcast,290,2013-01-22 23:55:00
7:14 PM,12.0,1.0,61,30.26,10.0,NW,3.5,-,N/A,,Overcast,320,2013-01-23 00:14:00
7:34 PM,11.3,1.9,66,30.26,10.0,NW,4.6,-,N/A,,Overcast,320,2013-01-23 00:34:00
7:55 PM,11.7,1.6,64,30.27,10.0,WNW,4.6,-,N/A,,Scattered Clouds,290,2013-01-23 00:55:00
8:14 PM,11.3,0.7,62,30.26,10.0,West,5.8,-,N/A,,Scattered Clouds,280,2013-01-23 01:14:00
8:35 PM,11.5,0.7,62,30.26,10.0,West,4.6,-,N/A,,Mostly Cloudy,280,2013-01-23 01:35:00
8:55 PM,11.3,0.3,61,30.26,10.0,West,5.8,-,N/A,,Mostly Cloudy,270,2013-01-23 01:55:00
9:14 PM,11.1,0.3,62,30.26,10.0,West,6.9,-,N/A,,Scattered Clouds,270,2013-01-23 02:14:00
9:35 PM,11.1,0.7,63,30.27,10.0,WNW,6.9,-,N/A,,Mostly Cloudy,290,2013-01-23 02:35:00
9:55 PM,11.1,1.8,66,30.26,10.0,WNW,4.6,-,N/A,,Overcast,300,2013-01-23 02:55:00
10:14 PM,10.8,1.8,67,30.26,7.0,WNW,4.6,-,N/A,,Overcast,290,2013-01-23 03:14:00
10:35 PM,10.8,1.2,65,30.26,10.0,WNW,6.9,-,N/A,,Overcast,290,2013-01-23 03:35:00
10:54 PM,10.6,1.4,67,30.26,10.0,WNW,4.6,-,N/A,,Overcast,300,2013-01-23 03:54:00
11:14 PM,10.8,1.4,66,30.27,10.0,WNW,5.8,-,N/A,,Overcast,300,2013-01-23 04:14:00
11:35 PM,10.6,0.5,64,30.27,10.0,WNW,6.9,-,N/A,,Overcast,290,2013-01-23 04:35:00
11:54 PM,10.4,0.5,64,30.27,10.0,West,6.9,-,N/A,,Overcast,280,2013-01-23 04:54:00